createdAt,value
2018-05-04T00:01:57.855Z,51.80
2018-05-04T00:04:25.285Z,51.87
2018-05-04T00:06:52.775Z,52.12
2018-05-04T00:09:20.217Z,52.21
2018-05-04T00:11:47.690Z,52.26
2018-05-04T00:14:15.261Z,52.59
2018-05-04T00:16:42.714Z,52.73
2018-05-04T00:19:10.243Z,52.36
2018-05-04T00:21:38.578Z,52.16
2018-05-04T00:24:06.023Z,52.47
2018-05-04T00:26:33.499Z,52.34
2018-05-04T00:29:01.172Z,52.85
2018-05-04T00:31:28.674Z,53.15
2018-05-04T00:33:56.146Z,53.04
2018-05-04T00:36:23.620Z,52.69
2018-05-04T00:38:51.048Z,52.99
2018-05-04T00:41:18.511Z,53.08
2018-05-04T00:43:46.745Z,53.13
2018-05-04T00:46:14.440Z,53.09
2018-05-04T00:48:41.967Z,53.35
2018-05-04T00:51:09.428Z,53.53
2018-05-04T00:53:48.596Z,54.05
2018-05-04T00:56:16.107Z,54.08
2018-05-04T00:58:43.591Z,53.70
2018-05-04T01:01:11.049Z,53.69
2018-05-04T01:03:38.508Z,53.75
2018-05-04T01:06:05.973Z,53.45
2018-05-04T01:08:33.440Z,53.61
2018-05-04T01:26:30.358Z,54.71
2018-05-04T01:28:57.829Z,54.52
2018-05-04T01:31:25.318Z,54.52
2018-05-04T01:33:52.855Z,54.30
2018-05-04T01:36:20.294Z,54.40
2018-05-04T01:38:47.850Z,54.88
2018-05-04T01:41:15.776Z,55.20
2018-05-04T01:43:43.206Z,55.16
2018-05-04T01:46:10.691Z,55.84
2018-05-04T01:48:38.266Z,55.21
2018-05-04T01:51:05.841Z,55.17
2018-05-04T01:53:33.299Z,55.23
2018-05-04T01:56:00.796Z,55.23
2018-05-04T01:58:28.266Z,55.34
2018-05-04T02:00:55.785Z,55.24
2018-05-04T02:03:23.229Z,55.23
2018-05-04T02:05:50.720Z,55.00
2018-05-04T02:08:18.168Z,55.33
2018-05-04T02:10:45.698Z,55.44
2018-05-04T02:13:13.121Z,55.25
2018-05-04T02:15:40.912Z,55.03
2018-05-04T02:18:08.424Z,55.11
2018-05-04T02:20:35.877Z,55.43
2018-05-04T02:23:03.335Z,55.31
2018-05-04T02:25:30.782Z,55.20
2018-05-04T02:27:58.275Z,55.37
2018-05-04T02:30:25.765Z,55.60
2018-05-04T02:32:53.233Z,55.48
2018-05-04T02:35:20.727Z,55.61
2018-05-04T02:37:48.289Z,56.43
2018-05-04T02:40:15.770Z,56.08
2018-05-04T02:42:44.297Z,56.52
2018-05-04T02:45:11.844Z,56.45
2018-05-04T02:47:39.534Z,56.38
2018-05-04T02:50:07.065Z,56.74
2018-05-04T02:52:34.499Z,56.30
2018-05-04T02:55:01.979Z,56.15
2018-05-04T02:57:29.583Z,56.16
2018-05-04T02:59:57.280Z,55.97
2018-05-04T03:02:24.859Z,56.07
2018-05-04T03:04:52.213Z,56.32
2018-05-04T03:07:19.765Z,56.47
2018-05-04T03:09:47.237Z,56.23
2018-05-04T03:12:14.715Z,56.27
2018-05-04T03:14:42.158Z,56.61
2018-05-04T03:17:09.600Z,56.62
2018-05-04T03:19:37.223Z,56.53
2018-05-04T03:22:04.803Z,56.54
2018-05-04T03:24:32.138Z,56.53
2018-05-04T03:26:59.688Z,56.62
2018-05-04T03:29:27.156Z,56.82
2018-05-04T03:31:54.611Z,56.76
2018-05-04T03:34:22.939Z,56.86
2018-05-04T03:36:50.425Z,57.08
2018-05-04T03:39:17.871Z,57.03
2018-05-04T03:41:45.329Z,57.17
2018-05-04T03:44:12.800Z,57.08
2018-05-04T03:46:40.396Z,56.96
2018-05-04T03:49:07.906Z,56.89
2018-05-04T03:51:35.373Z,57.01
2018-05-04T03:54:02.843Z,57.12
2018-05-04T03:56:30.326Z,57.29
2018-05-04T03:59:09.589Z,57.18
2018-05-04T04:01:49.609Z,56.99
2018-05-04T04:04:17.115Z,57.07
2018-05-04T04:06:44.653Z,57.15
2018-05-04T04:09:12.077Z,57.37
2018-05-04T04:11:39.545Z,57.63
2018-05-04T04:14:07.045Z,57.55
2018-05-04T04:16:34.517Z,57.45
2018-05-04T04:19:01.998Z,57.55
2018-05-04T04:21:29.437Z,57.43
2018-05-04T04:23:56.899Z,57.29
2018-05-04T04:26:24.326Z,57.17
2018-05-04T04:28:51.824Z,57.35
2018-05-04T04:31:19.256Z,57.83
2018-05-04T04:33:46.809Z,57.67
2018-05-04T04:36:14.260Z,57.55
2018-05-04T04:38:41.724Z,57.31
2018-05-04T04:41:09.153Z,58.04
2018-05-04T04:43:36.640Z,57.94
2018-05-04T04:46:04.132Z,58.12
2018-05-04T04:48:31.567Z,57.99
2018-05-04T04:50:59.050Z,57.91
2018-05-04T04:53:27.485Z,57.91
2018-05-04T04:55:54.987Z,58.23
2018-05-04T04:58:22.419Z,58.40
2018-05-04T05:00:49.922Z,59.00
2018-05-04T05:03:17.351Z,58.96
2018-05-04T05:05:44.870Z,60.05
2018-05-04T05:08:12.385Z,60.31
2018-05-04T05:10:39.939Z,59.65
2018-05-04T05:13:07.382Z,59.39
2018-05-04T05:15:34.846Z,59.08
2018-05-04T05:18:02.300Z,58.77
2018-05-04T05:20:29.756Z,58.25
2018-05-04T05:22:57.199Z,57.95
2018-05-04T05:25:24.688Z,57.68
2018-05-04T05:27:52.208Z,57.84
2018-05-04T05:30:19.710Z,57.78
2018-05-04T05:32:47.297Z,57.68
2018-05-04T05:35:14.733Z,57.84
2018-05-04T05:37:42.184Z,57.64
2018-05-04T05:40:10.635Z,57.46
2018-05-04T05:42:38.095Z,57.30
2018-05-04T05:45:05.564Z,56.70
2018-05-04T05:47:33.066Z,55.88
2018-05-04T05:50:00.543Z,55.34
2018-05-04T05:52:27.996Z,55.30
2018-05-04T05:54:55.486Z,54.64
2018-05-04T05:57:22.963Z,52.97
2018-05-04T05:59:50.437Z,53.21
2018-05-04T06:02:18.433Z,53.05
2018-05-04T06:04:45.919Z,53.12
2018-05-04T06:07:13.478Z,53.13
2018-05-04T06:09:41.108Z,53.71
2018-05-04T06:12:08.707Z,53.85
2018-05-04T06:14:36.460Z,53.80
2018-05-04T06:17:03.950Z,54.50
2018-05-04T06:19:31.402Z,54.24
2018-05-04T06:21:58.863Z,54.29
2018-05-04T06:24:26.346Z,54.12
2018-05-04T06:26:53.793Z,54.33
2018-05-04T06:29:21.258Z,53.38
2018-05-04T06:31:48.683Z,52.54
2018-05-04T06:34:16.131Z,52.08
2018-05-04T06:36:43.602Z,51.94
2018-05-04T06:39:11.049Z,52.21
2018-05-04T06:41:38.512Z,51.58
2018-05-04T06:44:05.955Z,51.54
2018-05-04T06:46:33.428Z,51.06
2018-05-04T06:49:00.871Z,51.74
2018-05-04T06:51:28.342Z,52.67
2018-05-04T06:53:55.774Z,52.86
2018-05-04T06:56:23.241Z,52.10
2018-05-04T06:58:50.673Z,51.27
2018-05-04T07:01:18.223Z,51.32
2018-05-04T07:03:45.697Z,51.05
2018-05-04T07:06:13.156Z,50.06
2018-05-04T07:08:40.615Z,50.88
2018-05-04T07:11:08.065Z,51.21
2018-05-04T07:13:35.520Z,51.01
2018-05-04T07:16:03.003Z,50.40
2018-05-04T07:18:30.462Z,50.15
2018-05-04T07:20:57.893Z,49.96
2018-05-04T07:23:25.351Z,49.46
2018-05-04T07:25:52.796Z,49.80
2018-05-04T07:28:20.258Z,49.68
2018-05-04T07:30:47.702Z,48.59
2018-05-04T07:33:15.177Z,48.18
2018-05-04T07:35:42.672Z,48.90
2018-05-04T07:38:10.111Z,48.20
2018-05-04T07:40:37.739Z,47.63
2018-05-04T07:43:05.191Z,47.12
2018-05-04T07:45:32.649Z,46.65
2018-05-04T07:48:00.086Z,46.49
2018-05-04T07:50:27.572Z,44.58
2018-05-04T07:52:55.006Z,45.45
2018-05-04T07:55:22.425Z,45.62
2018-05-04T07:57:49.891Z,45.60
2018-05-04T08:00:17.364Z,46.20
2018-05-04T08:02:44.843Z,44.81
2018-05-04T08:05:12.294Z,44.80
2018-05-04T08:07:39.754Z,45.42
2018-05-04T08:10:07.217Z,45.18
2018-05-04T08:12:34.698Z,45.12
2018-05-04T08:15:02.248Z,45.55
2018-05-04T08:17:29.697Z,45.56
2018-05-04T08:19:57.199Z,45.39
2018-05-04T08:22:24.667Z,44.18
2018-05-04T08:24:52.121Z,43.80
2018-05-04T08:27:19.576Z,44.08
2018-05-04T08:29:47.015Z,44.11
2018-05-04T08:32:14.435Z,42.95
2018-05-04T08:34:41.904Z,43.25
2018-05-04T08:37:09.363Z,42.30
2018-05-04T08:39:36.887Z,43.37
2018-05-04T08:42:04.372Z,43.12
2018-05-04T08:44:31.861Z,41.65
2018-05-04T08:46:59.291Z,42.07
2018-05-04T08:49:26.740Z,41.33
2018-05-04T08:51:54.169Z,41.23
2018-05-04T08:54:21.647Z,41.54
2018-05-04T08:56:49.079Z,40.71
2018-05-04T08:59:16.513Z,41.57
2018-05-04T09:01:44.034Z,41.41
2018-05-04T09:04:11.486Z,40.79
2018-05-04T09:06:38.979Z,40.80
2018-05-04T09:09:06.425Z,41.40
2018-05-04T09:11:33.977Z,41.63
2018-05-04T09:14:01.430Z,41.16
2018-05-04T09:16:28.897Z,41.25
2018-05-04T09:18:56.484Z,41.52
2018-05-04T09:21:24.060Z,41.19
2018-05-04T09:23:51.502Z,40.69
2018-05-04T09:26:18.957Z,40.52
2018-05-04T09:28:46.447Z,40.46
2018-05-04T09:31:13.896Z,39.83
2018-05-04T09:33:41.834Z,40.06
2018-05-04T09:36:09.268Z,39.56
2018-05-04T09:38:36.722Z,38.78
2018-05-04T09:41:04.274Z,39.79
2018-05-04T09:43:31.830Z,40.04
2018-05-04T09:45:59.315Z,40.60
2018-05-04T09:48:26.763Z,40.85
2018-05-04T09:50:54.220Z,40.61
2018-05-04T09:53:21.732Z,41.08
2018-05-04T09:55:49.162Z,41.55
2018-05-04T09:58:16.642Z,42.26
2018-05-04T10:00:44.075Z,42.16
2018-05-04T10:03:11.532Z,41.43
2018-05-04T10:05:39.058Z,41.58
2018-05-04T10:08:06.517Z,41.82
2018-05-04T10:10:34.028Z,41.47
2018-05-04T10:13:01.470Z,40.78
2018-05-04T10:15:28.945Z,41.19
2018-05-04T10:17:56.389Z,41.65
2018-05-04T10:20:23.869Z,40.39
2018-05-04T10:22:51.362Z,41.08
2018-05-04T10:25:18.839Z,41.52
2018-05-04T10:27:46.334Z,40.31
2018-05-04T10:30:13.834Z,40.50
2018-05-04T10:32:41.976Z,40.81
2018-05-04T10:35:09.509Z,41.15
2018-05-04T10:37:37.123Z,39.95
2018-05-04T10:40:04.617Z,40.33
2018-05-04T10:42:32.159Z,39.87
2018-05-04T10:44:59.610Z,39.39
2018-05-04T10:47:27.059Z,39.57
2018-05-04T10:49:54.613Z,39.47
2018-05-04T10:52:24.087Z,39.30
2018-05-04T10:54:51.575Z,38.88
2018-05-04T10:57:19.200Z,39.41
2018-05-04T10:59:46.657Z,39.17
2018-05-04T11:02:14.238Z,38.67
2018-05-04T11:04:41.731Z,39.22
2018-05-04T11:07:09.203Z,39.46
2018-05-04T11:09:36.668Z,39.53
2018-05-04T11:12:04.192Z,39.74
2018-05-04T11:14:31.573Z,39.77
2018-05-04T11:16:59.029Z,40.59
2018-05-04T11:19:26.596Z,40.47
2018-05-04T11:21:54.020Z,40.19
2018-05-04T11:24:21.540Z,40.37
2018-05-04T11:26:49.025Z,39.98
2018-05-04T11:29:16.627Z,40.98
2018-05-04T11:31:44.088Z,40.60
2018-05-04T11:34:12.274Z,40.24
2018-05-04T11:36:39.770Z,40.73
2018-05-04T11:39:07.308Z,40.34
2018-05-04T11:41:34.832Z,40.59
2018-05-04T11:44:02.323Z,40.25
2018-05-04T11:46:30.029Z,39.87
2018-05-04T11:48:57.488Z,40.45
2018-05-04T11:51:25.031Z,40.79
2018-05-04T11:53:52.570Z,40.79
2018-05-04T11:56:20.027Z,40.96
2018-05-04T11:58:47.448Z,40.61
2018-05-04T12:01:14.923Z,40.31
2018-05-04T12:03:42.522Z,39.34
2018-05-04T12:06:10.361Z,38.93
2018-05-04T12:08:37.806Z,38.95
2018-05-04T12:11:05.276Z,38.69
2018-05-04T12:13:32.750Z,38.68
2018-05-04T12:16:00.238Z,38.56
2018-05-04T12:18:27.799Z,38.90
2018-05-04T12:20:55.300Z,39.02
2018-05-04T12:23:22.945Z,39.28
2018-05-04T12:25:50.403Z,38.73
2018-05-04T12:28:18.216Z,39.67
2018-05-04T12:30:45.723Z,39.95
2018-05-04T12:33:13.175Z,40.18
2018-05-04T12:35:40.812Z,39.96
2018-05-04T12:38:08.287Z,39.04
2018-05-04T12:40:35.760Z,39.86
2018-05-04T12:43:03.330Z,39.50
2018-05-04T12:45:30.812Z,39.64
2018-05-04T12:47:58.272Z,39.62
2018-05-04T12:50:25.776Z,38.82
2018-05-04T12:52:53.220Z,39.10
2018-05-04T12:55:20.707Z,39.09
2018-05-04T12:57:48.243Z,38.91
2018-05-04T13:00:15.719Z,39.15
2018-05-04T13:02:43.309Z,39.01
2018-05-04T13:05:10.819Z,38.68
2018-05-04T13:07:38.648Z,38.31
2018-05-04T13:10:06.987Z,38.09
2018-05-04T13:12:35.368Z,37.10
2018-05-04T13:15:03.189Z,36.44
2018-05-04T13:17:30.809Z,36.70
2018-05-04T13:19:58.301Z,35.88
2018-05-04T13:22:25.839Z,35.61
2018-05-04T13:24:53.336Z,35.91
2018-05-04T13:27:21.026Z,36.90
2018-05-04T13:29:48.592Z,37.07
2018-05-04T13:32:16.173Z,37.17
2018-05-04T13:34:43.738Z,37.85
2018-05-04T13:37:11.325Z,37.45
2018-05-04T13:39:38.921Z,36.91
2018-05-04T13:42:06.426Z,36.45
2018-05-04T13:44:34.023Z,36.21
2018-05-04T13:47:01.618Z,36.48
2018-05-04T13:49:29.205Z,37.32
2018-05-04T13:51:56.656Z,37.58
2018-05-04T13:54:27.980Z,37.12
2018-05-04T13:56:55.759Z,37.68
2018-05-04T13:59:23.426Z,38.19
2018-05-04T14:01:50.942Z,38.90
2018-05-04T14:04:18.525Z,38.42
2018-05-04T14:06:48.709Z,38.41
2018-05-04T14:09:16.967Z,38.75
2018-05-04T14:11:44.757Z,37.93
2018-05-04T14:14:12.232Z,38.40
2018-05-04T14:16:39.755Z,38.46
2018-05-04T14:19:07.207Z,38.01
2018-05-04T14:21:34.941Z,37.30
2018-05-04T14:24:02.396Z,38.07
2018-05-04T14:26:29.849Z,38.42
2018-05-04T14:28:57.408Z,38.23
2018-05-04T14:31:24.941Z,38.04
2018-05-04T14:33:52.508Z,38.63
2018-05-04T14:36:20.104Z,38.34
2018-05-04T14:38:49.455Z,38.29
2018-05-04T14:41:17.537Z,38.67
2018-05-04T14:43:45.068Z,38.35
2018-05-04T14:46:12.659Z,38.70
2018-05-04T14:48:40.290Z,38.76
2018-05-04T14:51:08.673Z,39.52
2018-05-04T14:53:36.224Z,39.86
2018-05-04T14:56:03.737Z,39.53
2018-05-04T14:58:32.598Z,39.36
2018-05-04T15:01:00.061Z,40.08
2018-05-04T15:03:28.268Z,40.02
2018-05-04T15:05:55.876Z,40.00
2018-05-04T15:08:23.474Z,39.89
2018-05-04T15:10:51.123Z,39.90
2018-05-04T15:13:18.869Z,39.89
2018-05-04T15:15:46.361Z,40.46
2018-05-04T15:18:13.912Z,40.91
2018-05-04T15:20:41.426Z,41.26
2018-05-04T15:23:09.385Z,41.36
2018-05-04T15:25:36.949Z,41.31
2018-05-04T15:28:04.502Z,41.75
2018-05-04T15:30:32.131Z,41.39
2018-05-04T15:32:59.661Z,41.63
2018-05-04T15:35:27.292Z,42.11
2018-05-04T15:37:54.871Z,41.70
2018-05-04T15:40:22.842Z,41.77
2018-05-04T15:42:50.250Z,42.02
2018-05-04T15:45:17.758Z,42.01
2018-05-04T15:47:45.293Z,42.19
2018-05-04T15:50:19.273Z,42.26
2018-05-04T15:52:47.382Z,42.17
2018-05-04T15:55:14.861Z,42.18
2018-05-04T15:57:42.416Z,42.38
2018-05-04T16:00:09.944Z,42.50
2018-05-04T16:02:37.706Z,42.42
2018-05-04T16:05:05.197Z,42.32
2018-05-04T16:07:32.735Z,42.60
2018-05-04T16:10:00.242Z,42.59
2018-05-04T16:12:27.764Z,42.47
2018-05-04T16:14:55.237Z,42.61
2018-05-04T16:17:22.754Z,42.82
2018-05-04T16:19:50.272Z,43.16
2018-05-04T16:22:17.806Z,43.26
2018-05-04T16:24:45.271Z,43.23
2018-05-04T16:27:12.757Z,42.86
2018-05-04T16:29:40.240Z,42.83
2018-05-04T16:32:07.719Z,42.90
2018-05-04T16:34:35.526Z,42.96
2018-05-04T16:37:03.168Z,43.09
2018-05-04T16:39:30.853Z,43.04
2018-05-04T16:41:59.523Z,42.62
2018-05-04T16:44:27.029Z,42.60
2018-05-04T16:47:00.166Z,42.59
2018-05-04T16:49:27.736Z,42.36
2018-05-04T16:51:55.208Z,42.60
2018-05-04T16:54:22.661Z,42.80
2018-05-04T16:56:50.260Z,42.95
2018-05-04T16:59:17.758Z,43.18
2018-05-04T17:01:46.360Z,43.11
2018-05-04T17:04:14.015Z,43.09
2018-05-04T17:06:41.642Z,43.35
2018-05-04T17:09:09.259Z,43.30
2018-05-04T17:11:36.626Z,43.31
2018-05-04T17:14:04.223Z,43.41
2018-05-04T19:55:55.914Z,43.38
2018-05-04T19:58:23.384Z,43.35
2018-05-04T20:00:50.933Z,43.09
2018-05-04T20:03:18.410Z,42.75
2018-05-04T20:05:46.046Z,42.58
2018-05-04T20:08:13.591Z,42.45
2018-05-04T20:10:41.138Z,42.14
2018-05-04T20:13:09.365Z,42.08
2018-05-04T20:15:36.903Z,41.71
2018-05-04T20:18:05.218Z,41.10
2018-05-04T20:20:32.690Z,40.69
2018-05-04T20:23:00.183Z,40.65
2018-05-04T20:25:27.781Z,40.68
2018-05-04T20:27:55.323Z,40.78
2018-05-04T20:30:22.792Z,40.84
2018-05-04T20:32:50.258Z,40.83
2018-05-04T20:35:17.723Z,40.77
2018-05-04T20:37:45.287Z,40.67
2018-05-04T20:40:12.987Z,40.67
2018-05-04T20:42:40.469Z,40.61
2018-05-04T20:45:07.943Z,40.72
2018-05-04T20:47:35.436Z,40.55
2018-05-04T20:50:02.871Z,40.82
2018-05-04T20:52:30.417Z,40.82
2018-05-04T20:54:58.016Z,40.79
2018-05-04T20:57:26.525Z,40.63
2018-05-04T20:59:54.023Z,40.43
2018-05-04T21:02:21.695Z,40.57
2018-05-04T21:04:49.286Z,40.26
2018-05-04T21:07:16.926Z,40.30
2018-05-04T21:09:44.440Z,40.07
2018-05-04T21:12:12.401Z,39.89
2018-05-04T21:14:39.887Z,40.13
2018-05-04T21:17:07.335Z,39.93
2018-05-04T21:19:34.818Z,40.01
2018-05-04T21:22:02.317Z,40.07
2018-05-04T21:24:29.857Z,39.67
2018-05-04T21:26:57.489Z,39.91
2018-05-04T21:29:25.260Z,39.83
2018-05-04T21:31:52.908Z,39.73
2018-05-04T21:34:20.444Z,40.05
2018-05-04T21:36:48.010Z,40.08
2018-05-04T21:39:15.499Z,40.05
2018-05-04T21:41:43.110Z,39.99
2018-05-04T21:44:10.544Z,40.07
2018-05-04T21:46:38.106Z,39.83
2018-05-04T21:49:05.611Z,39.98
2018-05-04T21:51:33.169Z,40.18
2018-05-04T21:54:00.851Z,40.30
2018-05-04T21:56:28.347Z,40.44
2018-05-04T21:58:55.805Z,40.70
2018-05-04T22:01:23.273Z,40.59
2018-05-04T22:03:50.755Z,40.51
2018-05-04T22:06:18.458Z,40.42
2018-05-04T22:08:48.641Z,40.53
2018-05-04T22:11:17.057Z,40.98
2018-05-04T22:13:44.563Z,41.14
2018-05-04T22:16:12.009Z,41.23
2018-05-04T22:18:40.913Z,41.34
2018-05-04T22:21:08.512Z,41.38
2018-05-04T22:23:36.096Z,41.48
2018-05-04T22:26:03.534Z,41.58
2018-05-04T22:28:31.111Z,41.45
2018-05-04T22:30:58.705Z,41.46
2018-05-04T22:33:26.249Z,41.46
2018-05-04T22:35:53.747Z,41.53
2018-05-04T22:38:21.354Z,41.51
2018-05-04T22:40:48.837Z,41.53
2018-05-04T22:43:16.778Z,41.79
2018-05-04T22:45:44.434Z,41.79
2018-05-04T22:48:12.014Z,42.18
2018-05-04T22:50:39.598Z,42.28
2018-05-04T22:53:07.113Z,42.47
2018-05-04T22:55:34.565Z,42.68
2018-05-04T22:58:02.637Z,42.93
2018-05-04T23:00:30.188Z,43.00
2018-05-04T23:02:57.690Z,43.22
2018-05-04T23:05:25.313Z,43.32
2018-05-04T23:07:52.817Z,43.26
2018-05-04T23:10:21.988Z,43.28
2018-05-04T23:12:49.421Z,43.29
2018-05-04T23:15:17.249Z,43.48
2018-05-04T23:17:44.819Z,43.56
2018-05-04T23:20:12.307Z,43.78
2018-05-04T23:22:39.873Z,43.97
2018-05-04T23:25:07.380Z,44.09
2018-05-04T23:27:35.384Z,43.91
2018-05-04T23:30:03.026Z,44.29
2018-05-04T23:32:30.594Z,44.28
2018-05-04T23:34:58.193Z,44.51
2018-05-04T23:37:25.755Z,44.91
2018-05-04T23:39:53.283Z,44.77
2018-05-04T23:42:20.845Z,44.71
2018-05-04T23:44:48.302Z,44.82
2018-05-04T23:47:15.882Z,45.02
2018-05-04T23:49:44.157Z,45.20
2018-05-04T23:52:11.640Z,45.56
2018-05-04T23:54:39.184Z,45.37
2018-05-04T23:57:06.756Z,45.57
2018-05-04T23:59:34.245Z,46.28
